createdAt,value
2023-05-18T00:02:07.043Z,11.48
2023-05-18T00:04:34.679Z,15.18
2023-05-18T00:07:05.345Z,6.88
2023-05-18T00:09:37.048Z,10.43
2023-05-18T00:14:31.394Z,8.00
2023-05-18T00:16:58.007Z,9.52
2023-05-18T00:19:25.150Z,10.63
2023-05-18T00:21:52.595Z,7.90
2023-05-18T00:24:19.365Z,10.35
2023-05-18T00:26:47.177Z,11.70
2023-05-18T00:29:13.751Z,10.38
2023-05-18T00:31:40.541Z,10.98
2023-05-18T00:34:10.696Z,13.00
2023-05-18T00:36:37.886Z,30.00
2023-05-18T00:39:05.869Z,9.63
2023-05-18T00:41:32.922Z,14.02
2023-05-18T00:44:00.532Z,12.43
2023-05-18T00:46:28.386Z,8.60
2023-05-18T00:48:57.169Z,9.68
2023-05-18T00:51:24.708Z,10.30
2023-05-18T00:53:52.642Z,11.80
2023-05-18T00:56:20.066Z,7.15
2023-05-18T00:58:47.829Z,6.03
2023-05-18T01:01:17.831Z,7.13
2023-05-18T01:03:44.718Z,8.80
2023-05-18T01:06:12.850Z,10.20
2023-05-18T01:08:39.410Z,10.45
2023-05-18T01:11:33.842Z,14.10
2023-05-18T01:14:15.943Z,5.70
2023-05-18T01:16:54.288Z,11.13
2023-05-18T01:19:51.874Z,10.55
2023-05-18T01:22:37.740Z,9.27
2023-05-18T01:25:32.058Z,9.15
2023-05-18T01:28:06.582Z,9.80
2023-05-18T01:30:41.195Z,8.55
2023-05-18T01:33:11.051Z,10.70
2023-05-18T01:35:38.648Z,8.52
2023-05-18T01:38:05.171Z,11.98
2023-05-18T01:40:37.133Z,7.13
2023-05-18T01:43:16.057Z,14.20
2023-05-18T01:45:46.984Z,7.60
2023-05-18T01:48:18.542Z,8.60
2023-05-18T01:50:48.893Z,10.55
2023-05-18T01:53:42.913Z,11.23
2023-05-18T01:56:12.650Z,11.73
2023-05-18T01:58:40.112Z,7.00
2023-05-18T02:01:06.973Z,9.15
2023-05-18T02:03:33.626Z,10.70
2023-05-18T02:06:00.357Z,9.07
2023-05-18T02:08:27.014Z,15.10
2023-05-18T02:10:53.522Z,10.60
2023-05-18T02:13:19.986Z,15.20
2023-05-18T02:15:46.519Z,7.85
2023-05-18T02:18:13.034Z,7.20
2023-05-18T02:20:40.501Z,6.57
2023-05-18T02:23:06.973Z,9.25
2023-05-18T02:25:33.776Z,12.15
2023-05-18T02:28:00.407Z,5.43
2023-05-18T02:30:26.906Z,7.20
2023-05-18T02:32:53.416Z,9.23
2023-05-18T02:35:19.872Z,8.40
2023-05-18T02:37:47.261Z,7.55
2023-05-18T02:40:15.824Z,8.30
2023-05-18T02:42:42.491Z,6.68
2023-05-18T02:45:10.770Z,7.93
2023-05-18T02:47:38.410Z,6.97
2023-05-18T02:50:06.389Z,8.48
2023-05-18T02:52:34.011Z,8.02
2023-05-18T02:55:00.585Z,6.03
2023-05-18T02:57:48.164Z,6.78
2023-05-18T03:00:19.697Z,8.82
2023-05-18T03:02:48.354Z,7.90
2023-05-18T03:05:16.598Z,8.85
2023-05-18T03:07:50.545Z,9.32
2023-05-18T03:10:22.555Z,8.25
2023-05-18T03:12:49.707Z,10.07
2023-05-18T03:15:16.946Z,7.25
2023-05-18T03:17:43.712Z,6.82
2023-05-18T03:20:11.593Z,4.28
2023-05-18T03:22:38.180Z,7.03
2023-05-18T03:25:05.188Z,5.50
2023-05-18T03:27:31.855Z,9.57
2023-05-18T03:29:58.438Z,9.23
2023-05-18T03:32:25.510Z,9.25
2023-05-18T03:34:53.068Z,6.78
2023-05-18T03:37:21.296Z,8.25
2023-05-18T03:39:47.730Z,7.47
2023-05-18T03:42:15.374Z,10.32
2023-05-18T03:44:41.998Z,7.68
2023-05-18T03:47:08.855Z,8.05
2023-05-18T03:49:35.787Z,5.38
2023-05-18T03:52:04.380Z,11.15
2023-05-18T03:54:30.831Z,6.22
2023-05-18T03:56:57.272Z,7.07
2023-05-18T03:59:23.700Z,5.65
2023-05-18T04:01:53.870Z,9.25
2023-05-18T04:04:23.475Z,8.98
2023-05-18T04:06:51.547Z,6.07
2023-05-18T04:09:19.068Z,6.78
2023-05-18T04:11:45.757Z,9.23
2023-05-18T04:14:12.446Z,7.35
2023-05-18T04:16:38.984Z,6.38
2023-05-18T04:19:08.144Z,6.68
2023-05-18T04:21:36.055Z,7.97
2023-05-18T04:24:05.427Z,4.95
2023-05-18T04:26:34.634Z,5.45
2023-05-18T04:29:01.111Z,8.25
2023-05-18T04:31:27.985Z,6.45
2023-05-18T04:33:54.716Z,5.88
2023-05-18T04:36:25.618Z,10.25
2023-05-18T04:38:52.754Z,11.85
2023-05-18T04:41:22.647Z,10.20
2023-05-18T04:43:50.257Z,12.38
2023-05-18T04:46:17.098Z,12.20
2023-05-18T04:48:44.999Z,13.82
2023-05-18T04:51:11.510Z,12.50
2023-05-18T04:53:39.013Z,20.20
2023-05-18T04:56:06.411Z,14.10
2023-05-18T04:58:35.554Z,10.07
2023-05-18T05:01:02.199Z,8.43
2023-05-18T05:03:29.028Z,11.48
2023-05-18T05:05:55.853Z,9.98
2023-05-18T05:08:23.810Z,13.13
2023-05-18T05:10:50.255Z,13.63
2023-05-18T05:13:16.700Z,7.72
2023-05-18T05:15:43.223Z,14.20
2023-05-18T05:18:09.758Z,13.63
2023-05-18T05:20:36.309Z,13.68
2023-05-18T05:23:02.858Z,9.77
2023-05-18T05:25:29.823Z,18.70
2023-05-18T05:27:56.446Z,9.73
2023-05-18T05:30:23.367Z,9.95
2023-05-18T05:32:50.016Z,14.45
2023-05-18T05:35:16.860Z,11.27
2023-05-18T05:37:44.542Z,15.70
2023-05-18T05:40:11.324Z,14.57
2023-05-18T05:42:42.296Z,11.60
2023-05-18T05:45:08.934Z,14.48
2023-05-18T05:47:42.656Z,12.25
2023-05-18T05:50:09.295Z,13.20
2023-05-18T05:52:36.627Z,13.32
2023-05-18T05:55:04.778Z,9.45
2023-05-18T05:57:31.752Z,15.35
2023-05-18T05:59:59.260Z,10.75
2023-05-18T06:02:26.788Z,12.93
2023-05-18T06:04:54.364Z,14.05
2023-05-18T06:07:20.910Z,14.48
2023-05-18T06:09:47.413Z,17.40
2023-05-18T06:12:13.975Z,14.05
2023-05-18T06:14:40.499Z,13.10
2023-05-18T06:17:08.179Z,12.75
2023-05-18T06:19:34.709Z,14.15
2023-05-18T06:22:02.144Z,9.18
2023-05-18T06:24:33.927Z,13.15
2023-05-18T06:27:23.350Z,22.70
2023-05-18T06:30:01.420Z,11.57
2023-05-18T06:32:37.354Z,10.95
2023-05-18T06:35:04.417Z,14.27
2023-05-18T06:37:31.429Z,10.38
2023-05-18T06:39:58.482Z,17.60
2023-05-18T06:42:25.018Z,15.80
2023-05-18T06:45:00.457Z,11.38
2023-05-18T06:47:48.576Z,14.25
2023-05-18T06:50:15.104Z,10.93
2023-05-18T06:52:42.137Z,19.35
2023-05-18T06:55:09.603Z,12.55
2023-05-18T06:57:36.160Z,13.93
2023-05-18T07:00:07.078Z,13.30
2023-05-18T07:02:34.223Z,12.20
2023-05-18T07:05:01.524Z,6.20
2023-05-18T07:07:27.984Z,11.48
2023-05-18T07:09:54.939Z,12.27
2023-05-18T07:12:21.474Z,15.10
2023-05-18T07:14:47.980Z,11.20
2023-05-18T07:17:14.491Z,17.58
2023-05-18T07:19:40.985Z,13.63
2023-05-18T07:22:07.650Z,6.85
2023-05-18T07:24:34.225Z,16.45
2023-05-18T07:27:01.007Z,10.60
2023-05-18T07:29:29.783Z,13.35
2023-05-18T07:31:56.351Z,15.75
2023-05-18T07:34:23.782Z,13.85
2023-05-18T07:36:50.616Z,11.13
2023-05-18T07:39:19.698Z,16.58
2023-05-18T07:41:47.332Z,11.05
2023-05-18T07:44:14.319Z,12.98
2023-05-18T07:46:41.295Z,13.57
2023-05-18T07:49:07.769Z,10.20
2023-05-18T07:51:34.301Z,5.22
2023-05-18T07:54:01.017Z,13.00
2023-05-18T07:56:27.483Z,8.90
2023-05-18T07:58:53.917Z,10.45
2023-05-18T08:01:22.050Z,13.98
2023-05-18T08:03:48.586Z,7.88
2023-05-18T08:06:15.097Z,12.52
2023-05-18T08:08:41.561Z,9.80
2023-05-18T08:11:08.011Z,13.40
2023-05-18T08:13:34.477Z,8.88
2023-05-18T08:16:11.294Z,8.82
2023-05-18T08:18:38.666Z,13.05
2023-05-18T08:21:08.075Z,10.80
2023-05-18T08:23:34.960Z,11.65
2023-05-18T08:26:03.327Z,12.43
2023-05-18T08:28:31.083Z,7.53
2023-05-18T08:30:57.993Z,11.90
2023-05-18T08:33:24.494Z,13.98
2023-05-18T08:35:51.183Z,7.78
2023-05-18T08:38:17.780Z,6.72
2023-05-18T08:40:56.578Z,8.45
2023-05-18T08:43:30.085Z,8.18
2023-05-18T08:46:04.061Z,11.90
2023-05-18T08:48:32.131Z,11.82
2023-05-18T08:50:58.973Z,9.85
2023-05-18T08:53:25.863Z,12.98
2023-05-18T08:55:57.431Z,15.32
2023-05-18T08:58:34.316Z,8.50
2023-05-18T09:01:00.849Z,12.60
2023-05-18T09:03:27.539Z,8.68
2023-05-18T09:05:56.237Z,9.38
2023-05-18T09:08:23.565Z,7.35
2023-05-18T09:10:50.855Z,10.55
2023-05-18T09:13:22.550Z,8.30
2023-05-18T09:15:49.164Z,8.05
2023-05-18T09:18:15.621Z,4.82
2023-05-18T09:20:42.140Z,11.18
2023-05-18T09:23:08.608Z,7.18
2023-05-18T09:25:38.741Z,9.07
2023-05-18T09:28:05.249Z,12.43
2023-05-18T09:30:40.218Z,9.60
2023-05-18T09:33:17.161Z,7.53
2023-05-18T09:35:47.084Z,9.63
2023-05-18T09:38:17.456Z,9.23
2023-05-18T09:40:45.382Z,10.77
2023-05-18T09:43:11.896Z,9.80
2023-05-18T09:45:46.894Z,8.68
2023-05-18T09:48:14.348Z,12.00
2023-05-18T09:50:42.725Z,6.85
2023-05-18T09:53:10.160Z,7.15
2023-05-18T09:55:44.352Z,9.32
2023-05-18T09:58:10.899Z,13.57
2023-05-18T10:00:40.687Z,9.95
2023-05-18T10:03:17.175Z,9.40
2023-05-18T10:05:43.674Z,8.75
2023-05-18T10:08:12.421Z,8.57
2023-05-18T10:10:40.687Z,9.02
2023-05-18T10:13:07.224Z,8.27
2023-05-18T10:15:35.427Z,6.65
2023-05-18T10:18:03.553Z,7.15
2023-05-18T10:20:30.380Z,5.20
2023-05-18T10:23:00.759Z,7.60
2023-05-18T10:25:29.095Z,8.77
2023-05-18T10:28:05.057Z,7.75
2023-05-18T10:30:32.870Z,10.35
2023-05-18T10:33:00.337Z,8.10
2023-05-18T10:35:28.438Z,9.00
2023-05-18T10:37:57.564Z,9.55
2023-05-18T10:40:24.412Z,11.23
2023-05-18T10:42:52.236Z,8.00
2023-05-18T10:45:19.413Z,7.85
2023-05-18T10:47:47.835Z,6.18
2023-05-18T10:50:15.214Z,10.50
2023-05-18T10:52:42.393Z,11.00
2023-05-18T10:55:09.298Z,6.22
2023-05-18T10:57:42.245Z,7.97
2023-05-18T11:00:10.192Z,11.30
2023-05-18T11:02:42.222Z,6.88
2023-05-18T11:05:10.364Z,7.30
2023-05-18T11:07:37.793Z,8.30
2023-05-18T11:10:09.523Z,15.48
2023-05-18T11:12:38.345Z,6.25
2023-05-18T11:15:05.972Z,10.52
2023-05-18T11:17:32.529Z,8.20
2023-05-18T11:20:12.757Z,5.68
2023-05-18T11:22:57.179Z,5.60
2023-05-18T11:25:32.874Z,9.55
2023-05-18T11:28:04.678Z,10.30
2023-05-18T11:30:34.371Z,10.13
2023-05-18T11:33:42.885Z,7.20
2023-05-18T11:36:11.711Z,12.63
2023-05-18T11:38:55.461Z,7.10
2023-05-18T11:41:36.093Z,7.18
2023-05-18T11:44:06.899Z,12.35
2023-05-18T11:46:33.922Z,7.43
2023-05-18T11:49:19.894Z,8.15
2023-05-18T11:51:58.445Z,6.80
2023-05-18T11:54:26.550Z,8.20
2023-05-18T11:56:53.486Z,7.30
2023-05-18T11:59:46.089Z,10.02
2023-05-18T12:02:18.568Z,12.10
2023-05-18T12:04:47.913Z,7.15
2023-05-18T12:07:15.429Z,10.15
2023-05-18T12:09:43.313Z,9.73
2023-05-18T12:12:11.403Z,12.98
2023-05-18T12:14:41.037Z,8.88
2023-05-18T12:17:07.691Z,8.13
2023-05-18T12:19:38.834Z,7.57
2023-05-18T12:22:06.355Z,8.63
2023-05-18T12:24:32.889Z,6.65
2023-05-18T12:27:06.846Z,10.75
2023-05-18T12:29:37.590Z,10.95
2023-05-18T12:32:09.417Z,7.30
2023-05-18T12:34:36.603Z,10.27
2023-05-18T12:37:03.817Z,7.32
2023-05-18T12:39:30.401Z,9.00
2023-05-18T12:42:15.084Z,12.18
2023-05-18T12:44:45.874Z,10.55
2023-05-18T12:47:13.725Z,10.55
2023-05-18T12:49:42.666Z,7.80
2023-05-18T12:52:11.428Z,8.95
2023-05-18T12:54:49.585Z,9.27
2023-05-18T12:57:16.335Z,8.18
2023-05-18T12:59:51.430Z,9.88
2023-05-18T13:02:34.913Z,10.25
2023-05-18T13:05:10.103Z,11.40
2023-05-18T13:07:41.583Z,5.88
2023-05-18T13:10:13.269Z,8.70
2023-05-18T13:12:44.512Z,7.13
2023-05-18T13:15:22.257Z,11.45
2023-05-18T13:17:58.797Z,7.47
2023-05-18T13:20:36.454Z,11.85
2023-05-18T13:23:06.882Z,9.30
2023-05-18T13:25:33.754Z,7.77
2023-05-18T13:28:01.317Z,6.30
2023-05-18T13:30:27.861Z,6.13
2023-05-18T13:32:54.507Z,11.27
2023-05-18T13:35:21.446Z,7.68
2023-05-18T13:37:49.102Z,8.23
2023-05-18T13:40:16.784Z,7.00
2023-05-18T13:42:44.201Z,8.70
2023-05-18T13:45:13.749Z,7.05
2023-05-18T13:50:09.427Z,5.57
2023-05-18T13:52:36.512Z,11.88
2023-05-18T13:55:04.690Z,10.38
2023-05-18T13:57:32.321Z,11.43
2023-05-18T13:59:59.612Z,12.15
2023-05-18T14:02:26.542Z,8.15
2023-05-18T14:04:53.542Z,4.00
2023-05-18T14:07:20.150Z,7.75
2023-05-18T14:09:46.602Z,12.02
2023-05-18T14:12:13.129Z,5.88
2023-05-18T14:14:41.028Z,10.52
2023-05-18T14:17:09.822Z,6.32
2023-05-18T14:19:37.677Z,7.83
2023-05-18T14:22:04.237Z,5.35
2023-05-18T14:24:30.753Z,8.13
2023-05-18T14:26:57.311Z,9.75
2023-05-18T14:29:23.762Z,7.82
2023-05-18T14:31:50.279Z,7.38
2023-05-18T14:34:16.744Z,8.38
2023-05-18T14:36:43.197Z,11.65
2023-05-18T14:39:09.655Z,8.23
2023-05-18T14:41:36.215Z,13.57
2023-05-18T14:44:08.538Z,9.63
2023-05-18T14:46:35.961Z,5.30
2023-05-18T14:49:03.017Z,11.05
2023-05-18T14:51:29.485Z,9.30
2023-05-18T14:53:55.956Z,4.60
2023-05-18T14:56:22.765Z,5.60
2023-05-18T14:58:49.294Z,9.38
2023-05-18T15:01:15.734Z,7.15
2023-05-18T15:03:42.576Z,6.45
2023-05-18T15:06:09.542Z,12.27
2023-05-18T15:08:36.183Z,10.93
2023-05-18T15:11:02.640Z,8.32
2023-05-18T15:13:29.109Z,10.55
2023-05-18T15:15:55.678Z,7.78
2023-05-18T15:18:22.169Z,7.78
2023-05-18T15:20:48.696Z,9.73
2023-05-18T15:23:15.205Z,5.35
2023-05-18T15:25:41.728Z,8.90
2023-05-18T15:28:08.996Z,9.07
2023-05-18T15:30:35.470Z,7.05
2023-05-18T15:33:06.205Z,8.60
2023-05-18T15:35:34.768Z,5.38
2023-05-18T15:38:01.231Z,4.63
2023-05-18T15:40:27.856Z,4.57
2023-05-18T15:42:54.306Z,10.00
2023-05-18T15:45:20.788Z,5.30
2023-05-18T15:47:47.258Z,6.03
2023-05-18T15:50:13.779Z,4.90
2023-05-18T15:52:40.225Z,9.95
2023-05-18T15:55:07.024Z,8.88
2023-05-18T15:57:33.656Z,8.82
2023-05-18T16:00:00.207Z,6.68
2023-05-18T16:02:26.727Z,10.00
2023-05-18T16:04:53.184Z,6.28
2023-05-18T16:07:19.764Z,6.60
2023-05-18T16:09:47.966Z,4.97
2023-05-18T16:12:14.451Z,5.90
2023-05-18T16:14:40.916Z,7.60
2023-05-18T16:17:07.542Z,6.97
2023-05-18T16:19:34.067Z,7.10
2023-05-18T16:22:00.669Z,8.65
2023-05-18T16:24:27.117Z,6.82
2023-05-18T16:26:53.565Z,5.15
2023-05-18T16:29:20.024Z,5.18
2023-05-18T16:31:46.580Z,6.70
2023-05-18T16:34:13.034Z,10.75
2023-05-18T16:36:39.589Z,8.18
2023-05-18T16:39:07.778Z,6.72
2023-05-18T16:41:34.227Z,5.70
2023-05-18T16:44:00.810Z,4.43
2023-05-18T16:46:27.649Z,4.57
2023-05-18T16:48:54.187Z,7.05
2023-05-18T16:51:20.714Z,11.10
2023-05-18T16:53:47.205Z,7.40
2023-05-18T16:56:13.666Z,7.03
2023-05-18T16:58:40.137Z,9.35
2023-05-18T17:01:16.078Z,8.27
2023-05-18T17:03:46.283Z,10.20
2023-05-18T17:06:12.852Z,6.25
2023-05-18T17:08:39.322Z,11.13
2023-05-18T17:11:05.811Z,7.47
2023-05-18T17:13:32.279Z,6.65
2023-05-18T17:15:58.736Z,10.82
2023-05-18T17:18:25.229Z,4.43
2023-05-18T17:20:51.677Z,6.80
2023-05-18T17:23:18.809Z,7.22
2023-05-18T17:25:46.300Z,12.63
2023-05-18T17:28:13.827Z,9.68
2023-05-18T17:30:40.297Z,5.60
2023-05-18T17:33:06.895Z,5.35
2023-05-18T17:35:34.468Z,6.78
2023-05-18T17:38:00.931Z,6.50
2023-05-18T17:40:27.406Z,5.60
2023-05-18T17:42:53.873Z,5.20
2023-05-18T17:45:20.361Z,8.40
2023-05-18T17:47:46.843Z,6.68
2023-05-18T17:50:16.103Z,6.28
2023-05-18T17:52:42.541Z,5.53
2023-05-18T17:55:09.531Z,9.88
2023-05-18T17:57:36.063Z,8.20
2023-05-18T18:00:02.556Z,6.30
2023-05-18T18:02:37.754Z,8.93
2023-05-18T18:05:04.391Z,7.05
2023-05-18T18:07:30.829Z,8.98
2023-05-18T18:09:57.270Z,7.00
2023-05-18T18:12:23.712Z,4.95
2023-05-18T18:14:50.260Z,7.57
2023-05-18T18:17:16.757Z,6.10
2023-05-18T18:19:43.252Z,5.50
2023-05-18T18:22:09.736Z,4.57
2023-05-18T18:24:36.267Z,8.20
2023-05-18T18:27:02.906Z,4.38
2023-05-18T18:29:30.981Z,5.95
2023-05-18T18:31:57.548Z,8.10
2023-05-18T18:34:24.037Z,4.47
2023-05-18T18:36:50.559Z,6.38
2023-05-18T18:39:17.010Z,5.40
2023-05-18T18:41:43.506Z,10.13
2023-05-18T18:44:09.966Z,15.18
2023-05-18T18:46:36.512Z,12.73
2023-05-18T18:49:02.989Z,28.77
2023-05-18T18:51:29.637Z,26.98
2023-05-18T18:53:56.138Z,18.77
2023-05-18T18:56:24.269Z,28.63
2023-05-18T18:58:50.946Z,23.45
2023-05-18T19:01:17.508Z,17.60
2023-05-18T19:03:44.075Z,27.15
2023-05-18T19:06:11.336Z,27.10
2023-05-18T19:08:37.826Z,27.08
2023-05-18T19:11:04.297Z,22.52
2023-05-18T19:13:30.751Z,17.13
2023-05-18T19:15:58.098Z,27.60
2023-05-18T19:18:24.705Z,15.10
2023-05-18T19:20:51.199Z,16.65
2023-05-18T19:23:17.708Z,20.10
2023-05-18T19:25:44.191Z,41.10
2023-05-18T19:28:10.710Z,23.58
2023-05-18T19:30:37.288Z,33.95
2023-05-18T19:33:03.779Z,41.60
2023-05-18T19:35:31.867Z,62.40
2023-05-18T19:37:58.901Z,24.77
2023-05-18T19:40:27.216Z,13.02
2023-05-18T19:42:53.811Z,9.40
2023-05-18T19:45:20.321Z,9.57
2023-05-18T19:47:46.845Z,5.03
2023-05-18T19:50:13.376Z,13.25
2023-05-18T19:52:39.876Z,5.18
2023-05-18T19:55:06.759Z,4.20
2023-05-18T19:57:33.227Z,6.30
2023-05-18T19:59:59.814Z,8.85
2023-05-18T20:02:26.368Z,11.02
2023-05-18T20:04:53.802Z,8.57
2023-05-18T20:07:20.519Z,3.97
2023-05-18T20:09:47.072Z,5.63
2023-05-18T20:12:13.586Z,4.70
2023-05-18T20:14:40.064Z,5.93
2023-05-18T20:17:06.582Z,6.32
2023-05-18T20:19:33.207Z,6.10
2023-05-18T20:21:59.896Z,6.22
2023-05-18T20:24:26.359Z,4.75
2023-05-18T20:26:53.277Z,6.10
2023-05-18T20:29:19.772Z,11.80
2023-05-18T20:31:46.356Z,9.50
2023-05-18T20:34:12.872Z,8.68
2023-05-18T20:36:39.369Z,10.00
2023-05-18T20:39:07.206Z,6.07
2023-05-18T20:41:33.733Z,11.30
2023-05-18T20:44:01.927Z,8.60
2023-05-18T20:46:31.081Z,10.95
2023-05-18T20:48:57.768Z,9.68
2023-05-18T20:51:24.695Z,12.05
2023-05-18T20:53:51.444Z,13.07
2023-05-18T20:56:18.812Z,14.95
2023-05-18T20:58:48.627Z,20.75
2023-05-18T21:01:16.661Z,12.60
2023-05-18T21:03:45.239Z,16.70
2023-05-18T21:06:13.060Z,13.10
2023-05-18T21:08:40.534Z,16.63
2023-05-18T21:11:07.124Z,13.20
2023-05-18T21:13:35.696Z,9.05
2023-05-18T21:16:02.360Z,18.85
2023-05-18T21:18:28.842Z,11.55
2023-05-18T21:20:57.350Z,9.90
2023-05-18T21:23:23.847Z,9.77
2023-05-18T21:25:50.650Z,17.95
2023-05-18T21:28:17.541Z,14.13
2023-05-18T21:30:45.628Z,12.88
2023-05-18T21:33:12.271Z,6.80
2023-05-18T21:35:38.897Z,13.20
2023-05-18T21:38:05.350Z,11.35
2023-05-18T21:40:32.063Z,13.07
2023-05-18T21:42:58.731Z,14.13
2023-05-18T21:45:25.450Z,12.80
2023-05-18T21:47:51.946Z,10.27
2023-05-18T21:50:18.436Z,12.02
2023-05-18T21:52:44.890Z,11.45
2023-05-18T21:55:11.428Z,14.52
2023-05-18T21:57:37.910Z,12.65
2023-05-18T22:00:06.343Z,11.82
2023-05-18T22:02:39.323Z,11.35
2023-05-18T22:05:06.275Z,14.05
2023-05-18T22:07:32.709Z,13.63
2023-05-18T22:09:59.215Z,17.92
2023-05-18T22:12:25.678Z,8.52
2023-05-18T22:14:52.138Z,21.00
2023-05-18T22:17:18.597Z,17.20
2023-05-18T22:19:45.562Z,11.48
2023-05-18T22:22:19.477Z,10.32
2023-05-18T22:24:55.476Z,13.45
2023-05-18T22:27:22.184Z,11.60
2023-05-18T22:29:49.149Z,12.75
2023-05-18T22:32:17.729Z,11.00
2023-05-18T22:34:44.202Z,11.77
2023-05-18T22:37:10.879Z,9.45
2023-05-18T22:39:37.336Z,9.27
2023-05-18T22:42:03.906Z,13.00
2023-05-18T22:44:30.482Z,10.48
2023-05-18T22:46:57.101Z,10.38
2023-05-18T22:49:23.687Z,8.80
2023-05-18T22:51:50.119Z,14.38
2023-05-18T22:54:16.567Z,9.05
2023-05-18T22:56:43.004Z,7.30
2023-05-18T22:59:11.526Z,12.75
2023-05-18T23:01:38.268Z,9.35
2023-05-18T23:04:04.853Z,13.02
2023-05-18T23:06:31.698Z,12.43
2023-05-18T23:09:00.403Z,13.25
2023-05-18T23:11:28.521Z,10.18
2023-05-18T23:13:55.135Z,13.57
2023-05-18T23:16:22.658Z,13.85
2023-05-18T23:18:50.540Z,19.65
2023-05-18T23:21:17.161Z,11.68
2023-05-18T23:23:45.588Z,9.75
2023-05-18T23:26:12.687Z,13.90
2023-05-18T23:28:39.222Z,11.48
2023-05-18T23:31:05.680Z,7.32
2023-05-18T23:33:32.420Z,10.73
2023-05-18T23:36:02.472Z,10.18
2023-05-18T23:38:34.816Z,9.00
2023-05-18T23:41:05.198Z,11.85
2023-05-18T23:43:31.847Z,16.20
2023-05-18T23:45:59.800Z,9.25
2023-05-18T23:48:27.575Z,13.02
2023-05-18T23:50:59.629Z,8.63
2023-05-18T23:53:27.008Z,15.20
2023-05-18T23:55:53.826Z,13.57
2023-05-18T23:58:23.523Z,10.82
